createdAt,value
2023-03-11T00:02:09.253Z,101338.56
2023-03-11T00:04:40.879Z,101335.19
2023-03-11T00:07:12.617Z,101335.25
2023-03-11T00:09:43.320Z,101342.16
2023-03-11T00:12:13.639Z,101340.25
2023-03-11T00:14:44.110Z,101346.88
2023-03-11T00:17:15.037Z,101345.09
2023-03-11T00:19:45.888Z,101352.75
2023-03-11T00:22:16.690Z,101351.09
2023-03-11T00:24:47.096Z,101345.88
2023-03-11T00:27:20.915Z,101351.97
2023-03-11T00:29:51.424Z,101341.91
2023-03-11T00:32:22.714Z,101349.03
2023-03-11T00:34:53.236Z,101339.31
2023-03-11T00:37:23.674Z,101353.13
2023-03-11T00:39:53.935Z,101342.03
2023-03-11T00:42:24.835Z,101350.13
2023-03-11T00:44:55.190Z,101353.31
2023-03-11T00:47:25.987Z,101350.13
2023-03-11T00:49:56.922Z,101356.88
2023-03-11T00:52:27.766Z,101358.22
2023-03-11T00:54:59.683Z,101361.91
2023-03-11T00:57:30.408Z,101363.28
2023-03-11T01:00:01.522Z,101369.00
2023-03-11T01:02:32.686Z,101360.91
2023-03-11T01:05:03.378Z,101369.69
2023-03-11T01:07:34.725Z,101350.16
2023-03-11T01:10:08.887Z,101364.63
2023-03-11T01:12:39.643Z,101363.63
2023-03-11T01:15:13.509Z,101361.25
2023-03-11T01:17:44.064Z,101362.63
2023-03-11T01:20:15.649Z,101361.28
2023-03-11T01:22:56.608Z,101366.34
2023-03-11T01:25:27.601Z,101373.06
2023-03-11T01:27:59.555Z,101371.72
2023-03-11T01:30:30.837Z,101362.63
2023-03-11T01:33:01.923Z,101371.38
2023-03-11T01:35:33.450Z,101372.56
2023-03-11T01:38:04.171Z,101373.25
2023-03-11T01:40:41.577Z,101379.97
2023-03-11T01:43:41.963Z,101376.94
2023-03-11T01:46:25.819Z,101373.22
2023-03-11T01:48:58.762Z,101376.59
2023-03-11T01:51:44.119Z,101377.06
2023-03-11T01:54:20.132Z,101378.75
2023-03-11T01:56:51.668Z,101385.84
2023-03-11T01:59:28.836Z,101388.38
2023-03-11T02:02:11.133Z,101386.53
2023-03-11T02:04:44.104Z,101378.75
2023-03-11T02:07:20.551Z,101381.63
2023-03-11T02:09:53.982Z,101378.41
2023-03-11T02:12:34.916Z,101388.84
2023-03-11T02:15:13.673Z,101381.91
2023-03-11T02:17:48.371Z,101378.72
2023-03-11T02:20:54.165Z,101371.41
2023-03-11T02:23:28.160Z,101368.56
2023-03-11T02:26:28.128Z,101357.41
2023-03-11T02:28:59.588Z,101352.97
2023-03-11T02:31:30.895Z,101352.63
2023-03-11T02:34:03.584Z,101350.59
2023-03-11T02:36:43.202Z,101350.75
2023-03-11T02:39:17.308Z,101346.53
2023-03-11T02:41:48.556Z,101338.22
2023-03-11T02:44:19.895Z,101328.09
2023-03-11T02:46:50.264Z,101325.34
2023-03-11T02:49:22.458Z,101330.03
2023-03-11T02:51:56.221Z,101318.66
2023-03-11T02:54:27.601Z,101313.88
2023-03-11T02:56:59.171Z,101310.22
2023-03-11T02:59:31.312Z,101301.69
2023-03-11T03:02:04.896Z,101291.72
2023-03-11T03:04:45.536Z,101289.78
2023-03-11T03:07:17.474Z,101282.69
2023-03-11T03:09:48.661Z,101291.13
2023-03-11T03:12:22.376Z,101272.16
2023-03-11T03:14:53.089Z,101273.81
2023-03-11T03:17:25.526Z,101254.75
2023-03-11T03:19:56.429Z,101266.50
2023-03-11T03:22:28.657Z,101253.81
2023-03-11T03:25:00.721Z,101248.16
2023-03-11T03:27:33.393Z,101257.09
2023-03-11T03:30:09.580Z,101241.81
2023-03-11T03:32:40.347Z,101239.00
2023-03-11T03:35:14.884Z,101244.03
2023-03-11T03:38:17.623Z,101234.56
2023-03-11T03:40:48.875Z,101232.50
2023-03-11T03:43:22.883Z,101225.03
2023-03-11T03:46:01.798Z,101235.78
2023-03-11T03:48:36.432Z,101233.72
2023-03-11T03:51:12.018Z,101232.97
2023-03-11T03:53:50.410Z,101226.97
2023-03-11T03:56:21.266Z,101227.81
2023-03-11T03:58:52.221Z,101205.03
2023-03-11T04:01:23.584Z,101219.22
2023-03-11T04:03:57.017Z,101203.81
2023-03-11T04:06:29.681Z,101204.28
2023-03-11T04:09:05.508Z,101202.50
2023-03-11T04:11:47.337Z,101206.59
2023-03-11T04:14:23.099Z,101205.97
2023-03-11T04:16:59.262Z,101210.63
2023-03-11T04:19:31.244Z,101202.38
2023-03-11T04:22:02.397Z,101197.44
2023-03-11T04:24:33.151Z,101195.81
2023-03-11T04:27:04.057Z,101187.50
2023-03-11T04:29:36.900Z,101185.72
2023-03-11T04:32:08.150Z,101185.50
2023-03-11T04:34:39.494Z,101183.81
2023-03-11T04:37:10.221Z,101178.03
2023-03-11T04:39:41.087Z,101183.53
2023-03-11T04:42:14.923Z,101179.38
2023-03-11T04:44:47.077Z,101171.53
2023-03-11T04:47:19.453Z,101174.88
2023-03-11T04:49:50.107Z,101164.84
2023-03-11T04:52:21.136Z,101157.75
2023-03-11T04:54:52.106Z,101154.41
2023-03-11T04:57:23.507Z,101150.88
2023-03-11T04:59:54.041Z,101142.81
2023-03-11T05:02:25.337Z,101143.72
2023-03-11T05:05:04.456Z,101143.97
2023-03-11T05:07:35.835Z,101137.53
2023-03-11T05:10:07.707Z,101142.97
2023-03-11T05:12:41.040Z,101139.03
2023-03-11T05:15:12.087Z,101133.88
2023-03-11T05:17:43.024Z,101135.56
2023-03-11T05:20:15.765Z,101118.72
2023-03-11T05:22:47.070Z,101115.22
2023-03-11T05:25:17.698Z,101108.22
2023-03-11T05:27:48.687Z,101102.41
2023-03-11T05:30:21.848Z,101088.22
2023-03-11T05:32:53.211Z,101086.59
2023-03-11T05:35:24.109Z,101080.78
2023-03-11T05:37:55.868Z,101074.94
2023-03-11T05:40:31.753Z,101082.03
2023-03-11T05:43:02.942Z,101073.69
2023-03-11T05:45:37.923Z,101066.19
2023-03-11T05:48:09.660Z,101066.22
2023-03-11T05:50:50.386Z,101059.13
2023-03-11T05:53:25.728Z,101048.13
2023-03-11T05:56:00.438Z,101047.06
2023-03-11T05:58:33.558Z,101042.50
2023-03-11T06:01:11.300Z,101038.31
2023-03-11T06:03:42.673Z,101039.19
2023-03-11T06:06:15.945Z,101023.31
2023-03-11T06:08:50.799Z,101021.00
2023-03-11T06:11:27.891Z,101016.22
2023-03-11T06:14:00.006Z,101011.19
2023-03-11T06:16:40.809Z,101013.69
2023-03-11T06:19:14.036Z,101003.69
2023-03-11T06:21:49.114Z,101002.88
2023-03-11T06:24:21.040Z,101007.03
2023-03-11T06:26:55.471Z,101009.56
2023-03-11T06:29:29.932Z,101001.19
2023-03-11T06:32:01.182Z,101007.03
2023-03-11T06:34:32.779Z,100998.28
2023-03-11T06:37:06.970Z,100991.56
2023-03-11T06:39:37.456Z,100991.38
2023-03-11T06:42:12.309Z,100982.38
2023-03-11T06:44:45.312Z,100987.41
2023-03-11T06:47:15.960Z,100972.38
2023-03-11T06:49:46.908Z,100971.94
2023-03-11T06:52:17.507Z,100966.31
2023-03-11T06:54:48.185Z,100974.06
2023-03-11T06:57:20.689Z,100974.06
2023-03-11T06:59:52.690Z,100971.53
2023-03-11T07:02:29.067Z,100978.19
2023-03-11T07:04:59.595Z,100971.94
2023-03-11T07:07:30.506Z,100974.44
2023-03-11T07:10:05.147Z,100976.13
2023-03-11T07:12:35.636Z,100966.31
2023-03-11T07:15:06.729Z,100975.28
2023-03-11T07:17:38.319Z,100970.69
2023-03-11T07:20:09.632Z,100964.44
2023-03-11T07:22:40.796Z,100959.63
2023-03-11T07:25:11.958Z,100963.19
2023-03-11T07:27:43.025Z,100964.44
2023-03-11T07:30:14.549Z,100963.59
2023-03-11T07:32:45.203Z,100962.50
2023-03-11T07:35:16.672Z,100965.63
2023-03-11T07:37:50.058Z,100974.81
2023-03-11T07:40:21.637Z,100973.56
2023-03-11T07:42:52.794Z,100972.13
2023-03-11T07:45:25.034Z,100971.91
2023-03-11T07:47:55.667Z,100980.63
2023-03-11T07:50:28.382Z,100980.22
2023-03-11T07:52:59.355Z,100981.03
2023-03-11T07:55:30.752Z,100985.59
2023-03-11T07:58:01.949Z,100984.97
2023-03-11T08:00:32.915Z,100988.72
2023-03-11T08:03:03.823Z,100994.28
2023-03-11T08:05:35.765Z,100997.22
2023-03-11T08:08:07.072Z,101014.69
2023-03-11T08:10:41.202Z,101000.09
2023-03-11T08:13:11.808Z,101000.75
2023-03-11T08:15:42.490Z,101003.63
2023-03-11T08:18:13.881Z,101009.69
2023-03-11T08:20:48.146Z,101002.19
2023-03-11T08:23:18.810Z,101007.22
2023-03-11T08:25:49.232Z,101006.75
2023-03-11T08:28:20.022Z,101006.34
2023-03-11T08:30:50.884Z,101015.75
2023-03-11T08:33:21.479Z,101020.34
2023-03-11T08:35:52.326Z,101036.38
2023-03-11T08:38:23.021Z,101043.47
2023-03-11T08:40:54.064Z,101038.47
2023-03-11T08:43:24.966Z,101045.56
2023-03-11T08:45:55.826Z,101047.63
2023-03-11T08:48:26.543Z,101047.16
2023-03-11T08:50:58.304Z,101054.19
2023-03-11T08:53:31.007Z,101054.16
2023-03-11T08:56:02.397Z,101061.66
2023-03-11T08:58:32.956Z,101073.75
2023-03-11T09:01:03.586Z,101069.53
2023-03-11T09:03:43.122Z,101067.44
2023-03-11T09:06:16.405Z,101067.88
2023-03-11T09:08:48.753Z,101067.44
2023-03-11T09:11:20.000Z,101071.94
2023-03-11T09:13:51.307Z,101067.75
2023-03-11T09:16:24.300Z,101075.88
2023-03-11T09:18:57.500Z,101071.50
2023-03-11T09:21:27.901Z,101062.72
2023-03-11T09:23:58.621Z,101070.59
2023-03-11T09:26:32.052Z,101066.47
2023-03-11T09:29:05.880Z,101060.25
2023-03-11T09:31:36.537Z,101066.06
2023-03-11T09:34:07.668Z,101065.00
2023-03-11T09:36:38.520Z,101065.19
2023-03-11T09:39:09.686Z,101062.22
2023-03-11T09:41:57.845Z,101070.75
2023-03-11T09:44:54.925Z,101058.00
2023-03-11T09:47:56.872Z,101060.44
2023-03-11T09:50:55.789Z,101062.50
2023-03-11T09:53:43.264Z,101067.94
2023-03-11T09:56:22.951Z,101070.38
2023-03-11T09:59:05.671Z,101076.97
2023-03-11T10:01:47.215Z,101074.44
2023-03-11T10:04:51.738Z,101079.03
2023-03-11T10:07:25.667Z,101071.03
2023-03-11T10:10:00.445Z,101082.25
2023-03-11T10:12:53.949Z,101075.72
2023-03-11T10:15:41.047Z,101083.41
2023-03-11T10:18:36.148Z,101083.41
2023-03-11T10:21:22.100Z,101087.53
2023-03-11T10:24:21.097Z,101104.97
2023-03-11T10:26:58.256Z,101101.16
2023-03-11T10:29:32.565Z,101113.56
2023-03-11T10:32:43.588Z,101107.72
2023-03-11T10:35:20.155Z,101108.53
2023-03-11T10:37:57.377Z,101121.25
2023-03-11T10:40:37.869Z,101114.81
2023-03-11T10:43:18.172Z,101123.94
2023-03-11T10:45:52.028Z,101122.66
2023-03-11T10:48:24.055Z,101120.97
2023-03-11T10:51:11.408Z,101119.63
2023-03-11T10:53:49.719Z,101130.47
2023-03-11T10:56:37.125Z,101141.66
2023-03-11T10:59:45.810Z,101139.59
2023-03-11T11:02:31.161Z,101132.88
2023-03-11T11:05:23.586Z,101144.09
2023-03-11T11:08:06.702Z,101147.38
2023-03-11T11:10:38.500Z,101149.22
2023-03-11T11:13:16.069Z,101143.16
2023-03-11T11:15:56.221Z,101149.31
2023-03-11T11:18:38.686Z,101155.56
2023-03-11T11:21:17.894Z,101154.34
2023-03-11T11:23:53.869Z,101160.59
2023-03-11T11:26:26.807Z,101162.66
2023-03-11T11:29:21.584Z,101165.16
2023-03-11T11:31:54.893Z,101174.00
2023-03-11T11:34:36.384Z,101170.00
2023-03-11T11:37:07.449Z,101177.09
2023-03-11T11:39:52.648Z,101179.41
2023-03-11T11:42:24.972Z,101180.00
2023-03-11T11:45:03.801Z,101173.28
2023-03-11T11:47:38.607Z,101175.88
2023-03-11T11:50:17.481Z,101193.22
2023-03-11T11:53:10.869Z,101194.41
2023-03-11T11:55:49.260Z,101196.09
2023-03-11T11:58:20.390Z,101193.75
2023-03-11T12:00:59.875Z,101204.66
2023-03-11T12:04:07.755Z,101205.88
2023-03-11T12:07:05.741Z,101198.44
2023-03-11T12:09:42.744Z,101213.25
2023-03-11T12:13:06.713Z,101222.03
2023-03-11T12:16:12.297Z,101217.28
2023-03-11T12:19:19.080Z,101218.00
2023-03-11T12:22:14.183Z,101212.06
2023-03-11T12:24:49.672Z,101207.03
2023-03-11T12:27:23.022Z,101207.19
2023-03-11T12:29:57.324Z,101218.66
2023-03-11T12:32:48.782Z,101216.97
2023-03-11T12:35:33.636Z,101219.53
2023-03-11T12:38:42.900Z,101221.06
2023-03-11T12:41:16.728Z,101215.69
2023-03-11T12:43:50.428Z,101221.44
2023-03-11T12:46:22.725Z,101224.81
2023-03-11T12:49:14.659Z,101231.72
2023-03-11T12:52:08.742Z,101240.00
2023-03-11T12:54:43.734Z,101235.53
2023-03-11T12:57:20.429Z,101240.56
2023-03-11T13:00:19.154Z,101241.88
2023-03-11T13:03:17.110Z,101241.75
2023-03-11T13:06:05.438Z,101252.56
2023-03-11T13:08:41.574Z,101243.06
2023-03-11T13:11:33.361Z,101240.19
2023-03-11T13:14:33.760Z,101243.06
2023-03-11T13:17:34.321Z,101245.13
2023-03-11T13:20:07.833Z,101244.16
2023-03-11T13:23:08.924Z,101252.94
2023-03-11T13:25:46.293Z,101254.63
2023-03-11T13:28:35.701Z,101254.97
2023-03-11T13:31:44.442Z,101255.63
2023-03-11T13:34:18.515Z,101255.69
2023-03-11T13:37:16.410Z,101269.72
2023-03-11T13:40:15.012Z,101284.50
2023-03-11T13:42:53.585Z,101266.56
2023-03-11T13:45:29.939Z,101285.22
2023-03-11T13:48:05.088Z,101291.09
2023-03-11T13:50:53.721Z,101287.81
2023-03-11T13:53:30.976Z,101284.97
2023-03-11T13:56:01.870Z,101279.56
2023-03-11T13:58:32.811Z,101273.50
2023-03-11T14:01:04.205Z,101266.41
2023-03-11T14:03:42.169Z,101268.47
2023-03-11T14:06:22.462Z,101254.75
2023-03-11T14:08:58.350Z,101265.75
2023-03-11T14:11:30.505Z,101262.69
2023-03-11T14:14:02.770Z,101269.78
2023-03-11T14:16:44.958Z,101276.19
2023-03-11T14:19:20.034Z,101264.72
2023-03-11T14:21:56.412Z,101263.06
2023-03-11T14:24:30.202Z,101268.47
2023-03-11T14:27:03.315Z,101267.31
2023-03-11T14:29:37.171Z,101265.44
2023-03-11T14:32:24.619Z,101268.81
2023-03-11T14:34:55.550Z,101261.06
2023-03-11T14:37:40.182Z,101257.50
2023-03-11T14:40:25.570Z,101250.44
2023-03-11T14:42:58.688Z,101249.97
2023-03-11T14:45:35.613Z,101255.38
2023-03-11T14:48:09.565Z,101259.91
2023-03-11T14:50:40.767Z,101255.72
2023-03-11T14:53:26.464Z,101249.66
2023-03-11T14:56:01.110Z,101252.38
2023-03-11T14:58:32.052Z,101257.09
2023-03-11T15:01:12.249Z,101249.50
2023-03-11T15:03:51.788Z,101256.78
2023-03-11T15:06:26.133Z,101258.97
2023-03-11T15:08:59.376Z,101265.22
2023-03-11T15:11:30.402Z,101264.19
2023-03-11T15:14:39.072Z,101262.53
2023-03-11T15:17:42.919Z,101261.19
2023-03-11T15:20:37.207Z,101262.88
2023-03-11T15:23:08.713Z,101254.63
2023-03-11T15:25:41.730Z,101249.44
2023-03-11T15:28:32.761Z,101245.72
2023-03-11T15:31:32.712Z,101245.34
2023-03-11T15:34:31.852Z,101243.69
2023-03-11T15:37:07.210Z,101238.13
2023-03-11T15:39:39.203Z,101237.47
2023-03-11T15:42:09.780Z,101235.97
2023-03-11T15:45:25.129Z,101241.19
2023-03-11T15:47:59.329Z,101228.91
2023-03-11T15:50:46.623Z,101224.88
2023-03-11T15:53:21.102Z,101218.81
2023-03-11T15:56:08.152Z,101214.09
2023-03-11T15:58:39.483Z,101213.41
2023-03-11T16:01:11.329Z,101215.44
2023-03-11T16:03:42.409Z,101215.44
2023-03-11T16:06:12.982Z,101220.84
2023-03-11T16:08:45.842Z,101222.88
2023-03-11T16:11:17.164Z,101212.91
2023-03-11T16:13:47.761Z,101202.50
2023-03-11T16:16:19.551Z,101207.06
2023-03-11T16:18:50.011Z,101209.75
2023-03-11T16:21:23.132Z,101211.97
2023-03-11T16:23:54.274Z,101217.19
2023-03-11T16:26:25.048Z,101207.09
2023-03-11T16:28:57.326Z,101202.25
2023-03-11T16:31:31.057Z,101190.91
2023-03-11T16:34:01.799Z,101196.66
2023-03-11T16:36:32.172Z,101194.16
2023-03-11T16:39:03.740Z,101200.72
2023-03-11T16:41:45.413Z,101187.25
2023-03-11T16:44:15.932Z,101187.78
2023-03-11T16:46:46.298Z,101188.97
2023-03-11T16:49:16.902Z,101197.25
2023-03-11T16:51:47.631Z,101195.06
2023-03-11T16:54:17.999Z,101189.66
2023-03-11T16:56:51.141Z,101186.66
2023-03-11T16:59:21.554Z,101188.53
2023-03-11T17:01:52.289Z,101178.75
2023-03-11T17:04:23.481Z,101177.91
2023-03-11T17:06:53.837Z,101178.25
2023-03-11T17:09:27.670Z,101165.09
2023-03-11T17:12:01.311Z,101165.28
2023-03-11T17:14:33.231Z,101167.34
2023-03-11T17:17:04.197Z,101167.34
2023-03-11T17:19:35.253Z,101174.75
2023-03-11T17:22:06.288Z,101162.28
2023-03-11T17:24:37.925Z,101158.25
2023-03-11T17:27:08.565Z,101163.84
2023-03-11T17:29:41.779Z,101166.53
2023-03-11T17:32:17.103Z,101163.50
2023-03-11T17:34:48.984Z,101160.81
2023-03-11T17:37:22.642Z,101157.44
2023-03-11T17:39:52.979Z,101141.59
2023-03-11T17:42:24.136Z,101142.44
2023-03-11T17:44:57.574Z,101139.91
2023-03-11T17:47:28.182Z,101140.28
2023-03-11T17:49:58.774Z,101145.16
2023-03-11T17:52:29.487Z,101144.31
2023-03-11T17:54:59.823Z,101145.34
2023-03-11T17:57:35.391Z,101143.00
2023-03-11T18:00:15.340Z,101145.84
2023-03-11T18:02:46.885Z,101140.63
2023-03-11T18:05:18.755Z,101140.63
2023-03-11T18:07:49.319Z,101142.00
2023-03-11T18:10:22.418Z,101140.31
2023-03-11T18:12:52.774Z,101144.03
2023-03-11T18:15:25.363Z,101145.69
2023-03-11T18:17:57.998Z,101140.66
2023-03-11T18:20:28.793Z,101144.38
2023-03-11T18:22:59.418Z,101134.41
2023-03-11T18:25:30.003Z,101135.97
2023-03-11T18:28:00.276Z,101133.94
2023-03-11T18:30:30.932Z,101130.56
2023-03-11T18:33:01.238Z,101135.97
2023-03-11T18:35:32.102Z,101129.22
2023-03-11T18:38:02.815Z,101126.69
2023-03-11T18:40:33.119Z,101132.94
2023-03-11T18:43:03.777Z,101137.66
2023-03-11T18:45:34.174Z,101126.22
2023-03-11T18:48:04.815Z,101123.50
2023-03-11T18:50:35.344Z,101119.47
2023-03-11T18:53:05.699Z,101107.03
2023-03-11T18:55:39.501Z,101112.41
2023-03-11T18:58:10.684Z,101121.50
2023-03-11T19:00:41.058Z,101112.75
2023-03-11T19:03:14.649Z,101121.00
2023-03-11T19:05:50.829Z,101112.25
2023-03-11T19:08:22.135Z,101116.09
2023-03-11T19:10:53.121Z,101113.56
2023-03-11T19:13:23.662Z,101113.41
2023-03-11T19:15:54.577Z,101113.41
2023-03-11T19:18:26.166Z,101108.38
2023-03-11T19:21:06.800Z,101107.34
2023-03-11T19:23:40.188Z,101105.00
2023-03-11T19:26:10.585Z,101096.25
2023-03-11T19:28:41.017Z,101099.63
2023-03-11T19:31:11.563Z,101101.63
2023-03-11T19:33:42.209Z,101097.44
2023-03-11T19:36:13.385Z,101098.47
2023-03-11T19:38:43.775Z,101099.47
2023-03-11T19:41:16.710Z,101106.38
2023-03-11T19:43:47.839Z,101098.63
2023-03-11T19:46:22.381Z,101097.13
2023-03-11T19:48:57.473Z,101106.38
2023-03-11T19:51:32.930Z,101120.50
2023-03-11T19:54:09.920Z,101120.50
2023-03-11T19:56:41.279Z,101110.06
2023-03-11T19:59:11.878Z,101112.09
2023-03-11T20:01:43.236Z,101107.72
2023-03-11T20:04:15.958Z,101118.81
2023-03-11T20:06:46.784Z,101115.13
2023-03-11T20:09:18.648Z,101118.31
2023-03-11T20:11:54.156Z,101127.22
2023-03-11T20:14:24.962Z,101118.47
2023-03-11T20:16:55.325Z,101115.13
2023-03-11T20:19:25.749Z,101119.66
2023-03-11T20:21:56.564Z,101128.75
2023-03-11T20:24:28.078Z,101123.72
2023-03-11T20:26:58.448Z,101120.00
2023-03-11T20:29:28.916Z,101122.03
2023-03-11T20:31:59.610Z,101122.03
2023-03-11T20:34:31.235Z,101123.19
2023-03-11T20:37:01.796Z,101127.75
2023-03-11T20:39:32.110Z,101126.88
2023-03-11T20:42:02.742Z,101134.97
2023-03-11T20:44:33.543Z,101127.22
2023-03-11T20:47:04.027Z,101112.09
2023-03-11T20:49:34.637Z,101119.66
2023-03-11T20:52:05.041Z,101115.09
2023-03-11T20:54:35.614Z,101116.78
2023-03-11T20:57:06.768Z,101124.19
2023-03-11T20:59:37.134Z,101121.84
2023-03-11T21:02:07.996Z,101122.00
2023-03-11T21:04:42.144Z,101124.84
2023-03-11T21:07:12.650Z,101124.84
2023-03-11T21:09:43.564Z,101119.47
2023-03-11T21:12:16.720Z,101125.16
2023-03-11T21:14:47.637Z,101134.94
2023-03-11T21:17:21.190Z,101138.78
2023-03-11T21:19:51.566Z,101141.63
2023-03-11T21:22:22.115Z,101149.03
2023-03-11T21:24:54.618Z,101145.66
2023-03-11T21:27:28.428Z,101149.03
2023-03-11T21:30:00.995Z,101157.44
2023-03-11T21:32:33.257Z,101163.66
2023-03-11T21:35:04.824Z,101160.13
2023-03-11T21:37:38.549Z,101162.16
2023-03-11T21:40:09.841Z,101164.84
2023-03-11T21:42:40.341Z,101166.53
2023-03-11T21:45:11.309Z,101168.88
2023-03-11T21:47:42.014Z,101175.94
2023-03-11T21:50:13.168Z,101184.00
2023-03-11T21:52:43.829Z,101184.34
2023-03-11T21:55:14.800Z,101179.28
2023-03-11T21:57:45.725Z,101192.41
2023-03-11T22:00:17.025Z,101196.09
2023-03-11T22:02:47.613Z,101195.44
2023-03-11T22:05:18.481Z,101192.75
2023-03-11T22:07:58.896Z,101199.94
2023-03-11T22:10:32.425Z,101193.22
2023-03-11T22:13:02.873Z,101185.66
2023-03-11T22:15:33.775Z,101191.53
2023-03-11T22:18:04.637Z,101197.22
2023-03-11T22:20:35.101Z,101204.63
2023-03-11T22:23:05.753Z,101202.09
2023-03-11T22:25:36.254Z,101200.25
2023-03-11T22:28:06.975Z,101204.94
2023-03-11T22:30:37.253Z,101211.19
2023-03-11T22:33:11.082Z,101210.31
2023-03-11T22:35:42.422Z,101216.56
2023-03-11T22:38:13.053Z,101216.56
2023-03-11T22:40:44.003Z,101214.34
2023-03-11T22:43:15.108Z,101222.25
2023-03-11T22:45:46.790Z,101225.09
2023-03-11T22:48:17.318Z,101227.41
2023-03-11T22:50:48.128Z,101231.13
2023-03-11T22:53:18.433Z,101239.53
2023-03-11T22:55:48.919Z,101239.19
2023-03-11T22:58:19.305Z,101240.72
2023-03-11T23:00:50.303Z,101234.97
2023-03-11T23:03:21.171Z,101240.69
2023-03-11T23:05:52.058Z,101250.44
2023-03-11T23:08:22.739Z,101240.19
2023-03-11T23:10:53.555Z,101242.38
2023-03-11T23:13:24.141Z,101255.16
2023-03-11T23:15:54.483Z,101256.84
2023-03-11T23:18:28.309Z,101257.16
2023-03-11T23:20:59.251Z,101256.22
2023-03-11T23:23:30.115Z,101255.88
2023-03-11T23:26:01.039Z,101263.47
2023-03-11T23:28:32.091Z,101268.72
2023-03-11T23:31:05.959Z,101262.16
2023-03-11T23:33:37.037Z,101255.63
2023-03-11T23:36:14.093Z,101259.63
2023-03-11T23:38:45.853Z,101254.78
2023-03-11T23:41:21.164Z,101259.66
2023-03-11T23:43:51.727Z,101253.41
2023-03-11T23:46:22.508Z,101264.53
2023-03-11T23:48:53.096Z,101260.66
2023-03-11T23:51:23.688Z,101260.69
2023-03-11T23:53:54.361Z,101260.88
2023-03-11T23:56:24.682Z,101259.69
2023-03-11T23:58:55.141Z,101261.75
